createdAt,value
2022-10-22T00:01:52.377Z,12.93
2022-10-22T00:04:18.870Z,12.92
2022-10-22T00:06:45.359Z,12.94
2022-10-22T00:09:13.667Z,12.99
2022-10-22T00:11:49.533Z,12.97
2022-10-22T00:14:20.597Z,12.96
2022-10-22T00:17:11.160Z,12.87
2022-10-22T00:19:39.009Z,12.87
2022-10-22T00:22:05.774Z,12.89
2022-10-22T00:24:33.135Z,12.86
2022-10-22T00:26:59.747Z,12.88
2022-10-22T00:29:26.204Z,12.95
2022-10-22T00:31:52.738Z,12.93
2022-10-22T00:34:21.208Z,12.98
2022-10-22T00:36:49.175Z,12.92
2022-10-22T00:39:18.486Z,12.95
2022-10-22T00:41:46.315Z,12.91
2022-10-22T00:44:50.797Z,12.98
2022-10-22T00:47:18.630Z,12.95
2022-10-22T00:49:46.750Z,12.91
2022-10-22T00:52:14.287Z,12.93
2022-10-22T00:54:41.275Z,12.92
2022-10-22T00:57:07.801Z,12.92
2022-10-22T00:59:34.452Z,12.99
2022-10-22T01:02:00.918Z,12.93
2022-10-22T01:04:27.433Z,12.85
2022-10-22T01:06:54.016Z,12.86
2022-10-22T01:09:32.634Z,12.93
2022-10-22T01:12:06.915Z,12.88
2022-10-22T01:14:45.558Z,12.92
2022-10-22T01:17:24.112Z,12.89
2022-10-22T01:19:57.958Z,12.82
2022-10-22T01:22:33.227Z,12.85
2022-10-22T01:25:13.267Z,12.84
2022-10-22T01:27:50.218Z,12.89
2022-10-22T01:30:18.474Z,12.94
2022-10-22T01:32:55.245Z,12.99
2022-10-22T01:35:29.303Z,12.95
2022-10-22T01:37:59.726Z,12.89
2022-10-22T01:40:28.235Z,12.96
2022-10-22T01:43:03.840Z,13.02
2022-10-22T01:45:35.509Z,13.02
2022-10-22T01:48:21.017Z,13.05
2022-10-22T01:51:26.585Z,13.11
2022-10-22T01:53:52.942Z,13.17
2022-10-22T01:56:36.810Z,13.19
2022-10-22T01:59:12.787Z,13.19
2022-10-22T02:02:00.842Z,13.18
2022-10-22T02:04:53.654Z,13.11
2022-10-22T02:07:24.826Z,13.06
2022-10-22T02:09:53.937Z,13.03
2022-10-22T02:12:22.761Z,13.01
2022-10-22T02:14:50.768Z,13.01
2022-10-22T02:17:21.341Z,13.03
2022-10-22T02:19:56.090Z,13.00
2022-10-22T02:22:24.613Z,13.03
2022-10-22T02:24:51.121Z,13.10
2022-10-22T02:27:27.706Z,13.05
2022-10-22T02:30:11.159Z,13.02
2022-10-22T02:33:07.266Z,13.00
2022-10-22T02:35:35.031Z,12.98
2022-10-22T02:38:02.058Z,12.87
2022-10-22T02:40:31.090Z,12.87
2022-10-22T02:42:57.991Z,12.87
2022-10-22T02:45:25.101Z,12.87
2022-10-22T02:47:51.937Z,12.90
2022-10-22T02:50:18.423Z,12.95
2022-10-22T02:52:44.854Z,12.91
2022-10-22T02:55:11.873Z,12.94
2022-10-22T02:57:38.813Z,12.99
2022-10-22T03:00:07.793Z,12.99
2022-10-22T03:02:34.327Z,12.94
2022-10-22T03:05:01.085Z,12.98
2022-10-22T03:07:27.524Z,12.93
2022-10-22T03:09:53.990Z,12.93
2022-10-22T03:12:20.583Z,12.94
2022-10-22T03:14:46.998Z,12.91
2022-10-22T03:17:13.462Z,12.87
2022-10-22T03:19:40.038Z,12.85
2022-10-22T03:22:12.541Z,12.92
2022-10-22T03:24:44.204Z,12.95
2022-10-22T03:27:15.025Z,12.84
2022-10-22T03:29:42.565Z,12.86
2022-10-22T03:32:09.189Z,12.88
2022-10-22T03:34:35.662Z,12.87
2022-10-22T03:37:02.508Z,12.81
2022-10-22T03:39:32.032Z,12.81
2022-10-22T03:41:58.899Z,12.80
2022-10-22T03:44:26.393Z,12.80
2022-10-22T03:46:53.131Z,12.78
2022-10-22T03:49:19.620Z,12.81
2022-10-22T03:51:46.043Z,12.82
2022-10-22T03:54:12.547Z,12.79
2022-10-22T03:56:39.262Z,12.81
2022-10-22T03:59:05.673Z,12.81
2022-10-22T04:01:32.274Z,12.81
2022-10-22T04:03:59.091Z,12.78
2022-10-22T04:06:25.613Z,12.83
2022-10-22T04:08:52.324Z,12.75
2022-10-22T04:11:18.782Z,12.76
2022-10-22T04:13:45.442Z,12.76
2022-10-22T04:16:18.786Z,12.72
2022-10-22T04:18:47.092Z,12.77
2022-10-22T04:21:16.574Z,12.76
2022-10-22T04:23:52.531Z,12.71
2022-10-22T04:26:19.956Z,12.73
2022-10-22T04:28:48.318Z,12.83
2022-10-22T04:31:18.378Z,12.79
2022-10-22T04:33:45.088Z,12.73
2022-10-22T04:36:18.222Z,12.70
2022-10-22T04:38:47.111Z,12.60
2022-10-22T04:41:22.794Z,12.66
2022-10-22T04:43:49.733Z,12.62
2022-10-22T04:46:17.680Z,12.63
2022-10-22T04:48:45.774Z,12.66
2022-10-22T04:51:15.625Z,12.55
2022-10-22T04:53:42.428Z,12.52
2022-10-22T04:56:09.191Z,12.53
2022-10-22T04:58:35.927Z,12.59
2022-10-22T05:01:13.334Z,12.55
2022-10-22T05:03:40.633Z,12.52
2022-10-22T05:06:08.238Z,12.66
2022-10-22T05:08:35.014Z,12.55
2022-10-22T05:11:01.760Z,12.57
2022-10-22T05:13:28.383Z,12.49
2022-10-22T05:15:54.984Z,12.50
2022-10-22T05:18:22.626Z,12.49
2022-10-22T05:20:49.382Z,12.42
2022-10-22T05:23:15.894Z,12.49
2022-10-22T05:25:42.648Z,12.38
2022-10-22T05:28:09.281Z,12.40
2022-10-22T05:30:35.856Z,12.44
2022-10-22T05:33:02.665Z,12.36
2022-10-22T05:35:29.320Z,12.29
2022-10-22T05:40:30.494Z,12.20
2022-10-22T05:42:58.627Z,12.10
2022-10-22T05:45:25.119Z,12.03
2022-10-22T05:47:51.709Z,12.04
2022-10-22T05:50:18.261Z,12.04
2022-10-22T05:52:44.853Z,11.99
2022-10-22T05:55:11.459Z,12.05
2022-10-22T05:57:39.835Z,11.97
2022-10-22T06:00:07.158Z,12.05
2022-10-22T06:02:33.722Z,11.97
2022-10-22T06:05:00.330Z,11.97
2022-10-22T06:07:26.895Z,11.97
2022-10-22T06:09:53.774Z,12.00
2022-10-22T06:12:20.236Z,11.99
2022-10-22T06:14:46.721Z,12.01
2022-10-22T06:17:13.428Z,12.02
2022-10-22T06:19:39.967Z,12.03
2022-10-22T06:22:06.549Z,12.06
2022-10-22T06:24:33.284Z,12.09
2022-10-22T06:26:59.793Z,12.10
2022-10-22T06:29:26.427Z,12.19
2022-10-22T06:31:52.919Z,12.24
2022-10-22T06:34:19.613Z,12.32
2022-10-22T06:36:46.752Z,12.31
2022-10-22T06:39:15.409Z,12.36
2022-10-22T06:41:41.972Z,12.28
2022-10-22T06:44:15.165Z,12.27
2022-10-22T06:46:43.563Z,12.32
2022-10-22T06:49:14.340Z,12.31
2022-10-22T06:51:41.531Z,12.36
2022-10-22T06:54:08.522Z,12.35
2022-10-22T06:56:35.209Z,12.39
2022-10-22T06:59:02.119Z,12.41
2022-10-22T07:01:32.950Z,12.44
2022-10-22T07:03:59.714Z,12.46
2022-10-22T07:06:27.843Z,12.47
2022-10-22T07:08:55.804Z,12.39
2022-10-22T07:11:25.210Z,12.42
2022-10-22T07:13:54.658Z,12.39
2022-10-22T07:16:21.583Z,12.34
2022-10-22T07:18:48.570Z,12.30
2022-10-22T07:21:17.835Z,12.33
2022-10-22T07:23:45.059Z,12.26
2022-10-22T07:26:16.405Z,12.28
2022-10-22T07:28:43.525Z,12.26
2022-10-22T07:31:12.243Z,12.20
2022-10-22T07:33:38.980Z,12.19
2022-10-22T07:36:08.591Z,12.17
2022-10-22T07:38:35.876Z,12.20
2022-10-22T07:41:03.012Z,12.33
2022-10-22T07:43:29.885Z,12.47
2022-10-22T07:45:56.505Z,12.46
2022-10-22T07:48:23.649Z,12.60
2022-10-22T07:50:51.613Z,12.67
2022-10-22T07:53:18.327Z,12.78
2022-10-22T07:55:48.790Z,12.87
2022-10-22T07:58:15.310Z,12.97
2022-10-22T08:00:41.885Z,13.11
2022-10-22T08:03:11.184Z,13.22
2022-10-22T08:05:39.249Z,13.37
2022-10-22T08:08:08.729Z,13.53
2022-10-22T08:10:35.322Z,13.61
2022-10-22T08:13:02.166Z,13.66
2022-10-22T08:15:29.322Z,13.67
2022-10-22T08:17:55.810Z,13.61
2022-10-22T08:20:22.405Z,13.49
2022-10-22T08:22:48.979Z,13.47
2022-10-22T08:25:16.411Z,13.50
2022-10-22T08:27:43.313Z,13.51
2022-10-22T08:30:10.983Z,13.49
2022-10-22T08:32:38.152Z,13.44
2022-10-22T08:35:06.421Z,13.57
2022-10-22T08:37:33.111Z,13.70
2022-10-22T08:39:59.702Z,13.83
2022-10-22T08:42:38.663Z,13.96
2022-10-22T08:45:26.791Z,14.06
2022-10-22T08:48:05.901Z,14.16
2022-10-22T08:50:44.026Z,14.13
2022-10-22T08:53:17.400Z,14.15
2022-10-22T08:55:44.881Z,14.25
2022-10-22T08:58:27.724Z,14.42
2022-10-22T09:01:12.878Z,14.66
2022-10-22T09:04:09.056Z,14.81
2022-10-22T09:06:38.533Z,14.97
2022-10-22T09:09:12.773Z,14.97
2022-10-22T09:11:44.600Z,15.05
2022-10-22T09:14:16.782Z,15.12
2022-10-22T09:17:35.325Z,15.15
2022-10-22T09:20:37.066Z,15.04
2022-10-22T09:23:30.644Z,15.10
2022-10-22T09:25:57.969Z,15.12
2022-10-22T09:28:26.179Z,15.19
2022-10-22T09:30:52.980Z,15.38
2022-10-22T09:33:30.961Z,15.57
2022-10-22T09:36:05.653Z,15.65
2022-10-22T09:38:44.610Z,15.56
2022-10-22T09:41:12.553Z,15.59
2022-10-22T09:43:39.265Z,15.45
2022-10-22T09:46:08.601Z,15.35
2022-10-22T09:48:39.209Z,15.38
2022-10-22T09:51:38.364Z,15.62
2022-10-22T09:54:19.341Z,15.87
2022-10-22T09:56:57.928Z,16.16
2022-10-22T09:59:33.715Z,16.09
2022-10-22T10:02:38.726Z,16.29
2022-10-22T10:05:17.711Z,16.46
2022-10-22T10:07:44.729Z,16.73
2022-10-22T10:10:43.721Z,17.03
2022-10-22T10:13:33.562Z,16.99
2022-10-22T10:16:15.742Z,16.86
2022-10-22T10:19:00.621Z,16.96
2022-10-22T10:21:54.351Z,16.67
2022-10-22T10:24:39.515Z,16.79
2022-10-22T10:27:25.667Z,16.95
2022-10-22T10:30:17.056Z,17.18
2022-10-22T10:32:55.859Z,17.38
2022-10-22T10:35:26.966Z,17.57
2022-10-22T10:40:37.847Z,17.83
2022-10-22T10:43:11.048Z,17.90
2022-10-22T10:46:09.377Z,17.81
2022-10-22T10:48:56.576Z,17.97
2022-10-22T10:51:33.216Z,18.25
2022-10-22T10:54:24.554Z,18.27
2022-10-22T10:57:03.074Z,18.16
2022-10-22T11:00:02.076Z,17.86
2022-10-22T11:05:44.238Z,18.05
2022-10-22T11:08:17.458Z,18.45
2022-10-22T11:10:52.844Z,18.42
2022-10-22T11:13:31.706Z,18.34
2022-10-22T11:16:10.753Z,18.10
2022-10-22T11:18:42.139Z,18.14
2022-10-22T11:21:19.702Z,18.09
2022-10-22T11:23:56.990Z,17.88
2022-10-22T11:26:38.988Z,17.95
2022-10-22T11:29:13.414Z,18.10
2022-10-22T11:31:41.661Z,18.15
2022-10-22T11:34:34.461Z,18.01
2022-10-22T11:37:04.953Z,18.01
2022-10-22T11:39:53.805Z,18.08
2022-10-22T11:42:45.237Z,17.78
2022-10-22T11:45:15.448Z,17.40
2022-10-22T11:48:11.409Z,17.09
2022-10-22T11:50:42.297Z,16.93
2022-10-22T11:53:15.203Z,16.85
2022-10-22T11:55:55.430Z,17.00
2022-10-22T11:58:28.298Z,17.17
2022-10-22T12:01:10.139Z,17.20
2022-10-22T12:03:44.103Z,17.08
2022-10-22T12:06:17.134Z,17.18
2022-10-22T12:08:52.845Z,17.18
2022-10-22T12:11:19.410Z,17.06
2022-10-22T12:13:58.789Z,16.83
2022-10-22T12:16:37.677Z,16.78
2022-10-22T12:19:10.592Z,16.95
2022-10-22T12:21:48.881Z,16.88
2022-10-22T12:24:25.233Z,16.89
2022-10-22T12:26:53.610Z,17.01
2022-10-22T12:29:23.779Z,17.03
2022-10-22T12:31:50.689Z,17.40
2022-10-22T12:34:22.140Z,17.87
2022-10-22T12:36:51.808Z,18.29
2022-10-22T12:39:21.573Z,18.60
2022-10-22T12:41:48.677Z,18.77
2022-10-22T12:44:17.737Z,18.81
2022-10-22T12:46:47.007Z,18.74
2022-10-22T12:49:22.750Z,18.83
2022-10-22T12:51:49.713Z,18.95
2022-10-22T12:54:21.837Z,18.95
2022-10-22T12:56:48.778Z,18.67
2022-10-22T12:59:23.877Z,18.42
2022-10-22T13:01:55.028Z,18.71
2022-10-22T13:04:36.022Z,18.50
2022-10-22T13:07:18.375Z,18.34
2022-10-22T13:09:55.698Z,18.34
2022-10-22T13:12:36.594Z,18.67
2022-10-22T13:15:21.264Z,18.76
2022-10-22T13:17:49.860Z,18.73
2022-10-22T13:20:22.638Z,18.68
2022-10-22T13:23:06.309Z,18.42
2022-10-22T13:25:40.549Z,18.29
2022-10-22T13:28:09.421Z,18.25
2022-10-22T13:30:37.959Z,18.25
2022-10-22T13:33:54.587Z,18.10
2022-10-22T13:36:21.970Z,18.13
2022-10-22T13:38:54.360Z,18.05
2022-10-22T13:41:32.304Z,18.04
2022-10-22T13:43:59.501Z,18.02
2022-10-22T13:46:27.291Z,18.03
2022-10-22T13:48:56.304Z,18.01
2022-10-22T13:51:33.430Z,18.01
2022-10-22T13:54:03.406Z,18.01
2022-10-22T13:56:33.196Z,18.03
2022-10-22T13:59:00.162Z,18.02
2022-10-22T14:01:29.451Z,18.05
2022-10-22T14:04:02.207Z,17.99
2022-10-22T14:06:31.635Z,18.02
2022-10-22T14:09:02.399Z,18.09
2022-10-22T14:11:32.724Z,18.00
2022-10-22T14:14:02.551Z,17.94
2022-10-22T14:16:34.416Z,17.90
2022-10-22T14:19:14.340Z,17.86
2022-10-22T14:21:41.066Z,17.86
2022-10-22T14:24:12.982Z,17.86
2022-10-22T14:26:42.389Z,17.84
2022-10-22T14:29:13.142Z,17.85
2022-10-22T14:31:42.399Z,17.86
2022-10-22T14:34:14.281Z,17.82
2022-10-22T14:36:45.257Z,17.84
2022-10-22T14:39:13.688Z,17.87
2022-10-22T14:41:41.925Z,17.84
2022-10-22T14:44:14.350Z,17.85
2022-10-22T14:46:44.213Z,17.92
2022-10-22T14:49:17.789Z,18.13
2022-10-22T14:51:47.447Z,18.30
2022-10-22T14:54:14.358Z,18.38
2022-10-22T14:56:41.122Z,18.33
2022-10-22T14:59:07.922Z,18.39
2022-10-22T15:01:36.665Z,18.33
2022-10-22T15:04:03.557Z,18.45
2022-10-22T15:06:30.321Z,18.58
2022-10-22T15:08:57.373Z,18.69
2022-10-22T15:11:24.290Z,18.82
2022-10-22T15:13:53.698Z,18.84
2022-10-22T15:16:23.048Z,18.82
2022-10-22T15:18:49.892Z,18.75
2022-10-22T15:21:23.331Z,18.75
2022-10-22T15:23:53.505Z,18.64
2022-10-22T15:26:21.315Z,18.47
2022-10-22T15:28:51.063Z,18.12
2022-10-22T15:31:54.670Z,17.89
2022-10-22T15:34:23.601Z,17.67
2022-10-22T15:36:51.324Z,17.54
2022-10-22T15:39:18.170Z,17.44
2022-10-22T15:41:48.986Z,17.31
2022-10-22T15:44:19.550Z,17.13
2022-10-22T15:49:18.425Z,16.97
2022-10-22T15:51:45.298Z,16.94
2022-10-22T15:54:17.453Z,16.95
2022-10-22T15:56:44.773Z,16.99
2022-10-22T15:59:13.382Z,16.98
2022-10-22T16:01:41.122Z,16.98
2022-10-22T16:04:08.673Z,16.91
2022-10-22T16:06:48.654Z,16.89
2022-10-22T16:09:19.748Z,16.86
2022-10-22T16:11:47.515Z,16.81
2022-10-22T16:14:15.666Z,16.77
2022-10-22T16:16:45.018Z,16.69
2022-10-22T16:19:13.010Z,16.62
2022-10-22T16:21:43.375Z,16.54
2022-10-22T16:24:10.909Z,16.45
2022-10-22T16:26:37.647Z,16.39
2022-10-22T16:29:11.077Z,16.24
2022-10-22T16:31:40.457Z,16.09
2022-10-22T16:34:10.514Z,16.02
2022-10-22T16:36:38.487Z,15.95
2022-10-22T16:39:07.838Z,15.85
2022-10-22T16:41:36.524Z,15.75
2022-10-22T16:44:07.965Z,15.81
2022-10-22T16:46:39.636Z,15.72
2022-10-22T16:49:10.324Z,15.67
2022-10-22T16:51:39.064Z,15.65
2022-10-22T16:54:08.399Z,15.70
2022-10-22T16:56:40.928Z,15.65
2022-10-22T16:59:08.143Z,15.62
2022-10-22T17:01:40.366Z,15.62
2022-10-22T17:04:10.824Z,15.63
2022-10-22T17:06:40.037Z,15.64
2022-10-22T17:09:14.956Z,15.63
2022-10-22T17:11:42.666Z,15.60
2022-10-22T17:14:12.101Z,15.53
2022-10-22T17:16:39.271Z,15.43
2022-10-22T17:19:21.776Z,15.31
2022-10-22T17:21:50.126Z,15.20
2022-10-22T17:24:20.858Z,15.10
2022-10-22T17:27:00.400Z,14.98
2022-10-22T17:29:27.377Z,14.87
2022-10-22T17:31:57.029Z,14.92
2022-10-22T17:34:24.155Z,14.94
2022-10-22T17:36:50.928Z,14.91
2022-10-22T17:39:18.764Z,14.87
2022-10-22T17:41:46.170Z,14.75
2022-10-22T17:44:16.284Z,14.63
2022-10-22T17:46:46.316Z,14.50
2022-10-22T17:49:21.045Z,14.52
2022-10-22T17:51:50.617Z,14.36
2022-10-22T17:54:17.623Z,14.20
2022-10-22T17:56:48.665Z,14.21
2022-10-22T17:59:19.147Z,14.17
2022-10-22T18:01:47.683Z,14.14
2022-10-22T18:04:19.524Z,13.99
2022-10-22T18:06:59.080Z,13.89
2022-10-22T18:09:26.539Z,13.87
2022-10-22T18:11:54.735Z,13.91
2022-10-22T18:14:24.358Z,13.92
2022-10-22T18:16:51.684Z,13.75
2022-10-22T18:19:26.102Z,13.65
2022-10-22T18:21:53.038Z,13.68
2022-10-22T18:24:20.069Z,13.61
2022-10-22T18:26:46.938Z,13.58
2022-10-22T18:29:18.841Z,13.57
2022-10-22T18:31:49.131Z,13.46
2022-10-22T18:34:18.896Z,13.53
2022-10-22T18:36:48.636Z,13.61
2022-10-22T18:39:16.319Z,13.58
2022-10-22T18:41:50.947Z,13.49
2022-10-22T18:44:20.568Z,13.40
2022-10-22T18:46:47.387Z,13.24
2022-10-22T18:49:18.925Z,13.17
2022-10-22T18:51:48.785Z,13.11
2022-10-22T18:54:23.106Z,13.09
2022-10-22T18:56:50.559Z,13.04
2022-10-22T18:59:20.922Z,12.96
2022-10-22T19:01:47.788Z,12.88
2022-10-22T19:04:14.917Z,12.95
2022-10-22T19:06:45.350Z,12.95
2022-10-22T19:09:16.279Z,12.89
2022-10-22T19:11:44.018Z,12.80
2022-10-22T19:14:13.363Z,12.77
2022-10-22T19:16:40.007Z,12.77
2022-10-22T19:19:08.122Z,12.75
2022-10-22T19:21:35.450Z,12.75
2022-10-22T19:24:05.461Z,12.73
2022-10-22T19:26:34.833Z,12.74
2022-10-22T19:29:01.914Z,12.78
2022-10-22T19:31:32.237Z,12.74
2022-10-22T19:34:03.343Z,12.76
2022-10-22T19:36:32.641Z,12.75
2022-10-22T19:39:00.270Z,12.70
2022-10-22T19:41:29.017Z,12.57
2022-10-22T19:43:57.513Z,12.55
2022-10-22T19:46:26.442Z,12.58
2022-10-22T19:48:56.303Z,12.42
2022-10-22T19:51:27.559Z,12.42
2022-10-22T19:54:08.973Z,12.41
2022-10-22T19:56:37.733Z,12.33
2022-10-22T19:59:05.295Z,12.29
2022-10-22T20:01:32.227Z,12.30
2022-10-22T20:04:01.852Z,12.20
2022-10-22T20:06:29.474Z,12.17
2022-10-22T20:08:56.476Z,12.22
2022-10-22T20:11:28.357Z,12.18
2022-10-22T20:13:56.702Z,12.21
2022-10-22T20:16:25.033Z,12.09
2022-10-22T20:18:52.743Z,12.02
2022-10-22T20:21:20.461Z,12.06
2022-10-22T20:23:48.189Z,11.95
2022-10-22T20:26:14.931Z,12.01
2022-10-22T20:28:41.625Z,12.00
2022-10-22T20:31:10.338Z,11.96
2022-10-22T20:33:37.126Z,11.93
2022-10-22T20:36:07.382Z,11.95
2022-10-22T20:38:34.558Z,11.94
2022-10-22T20:41:07.490Z,11.91
2022-10-22T20:43:34.719Z,11.95
2022-10-22T20:46:01.994Z,11.84
2022-10-22T20:48:31.312Z,11.84
2022-10-22T20:50:59.517Z,11.70
2022-10-22T20:53:28.155Z,11.77
2022-10-22T20:55:59.426Z,11.78
2022-10-22T20:58:27.710Z,11.77
2022-10-22T21:00:55.192Z,11.75
2022-10-22T21:03:22.404Z,11.68
2022-10-22T21:05:49.272Z,11.71
2022-10-22T21:08:18.703Z,11.58
2022-10-22T21:10:46.545Z,11.61
2022-10-22T21:13:13.864Z,11.58
2022-10-22T21:15:40.802Z,11.53
2022-10-22T21:18:08.378Z,11.47
2022-10-22T21:20:35.138Z,11.61
2022-10-22T21:23:02.225Z,11.57
2022-10-22T21:25:28.995Z,11.49
2022-10-22T21:27:56.066Z,11.54
2022-10-22T21:30:22.981Z,11.61
2022-10-22T21:32:50.019Z,11.63
2022-10-22T21:35:16.668Z,11.52
2022-10-22T21:37:43.518Z,11.53
2022-10-22T21:40:11.100Z,11.58
2022-10-22T21:42:37.702Z,11.50
2022-10-22T21:45:08.020Z,11.41
2022-10-22T21:47:38.865Z,11.44
2022-10-22T21:50:06.173Z,11.43
2022-10-22T21:52:32.870Z,11.42
2022-10-22T21:55:01.841Z,11.48
2022-10-22T21:57:28.578Z,11.49
2022-10-22T21:59:55.377Z,11.42
2022-10-22T22:02:22.227Z,11.42
2022-10-22T22:04:54.846Z,11.53
2022-10-22T22:07:22.135Z,11.49
2022-10-22T22:09:50.184Z,11.49
2022-10-22T22:12:18.218Z,11.49
2022-10-22T22:14:45.052Z,11.53
2022-10-22T22:17:11.857Z,11.49
2022-10-22T22:19:39.096Z,11.59
2022-10-22T22:22:08.600Z,11.60
2022-10-22T22:24:35.547Z,11.51
2022-10-22T22:27:02.227Z,11.50
2022-10-22T22:29:28.934Z,11.52
2022-10-22T22:31:55.854Z,11.52
2022-10-22T22:34:22.667Z,11.52
2022-10-22T22:36:52.603Z,11.52
2022-10-22T22:39:23.825Z,11.47
2022-10-22T22:41:50.930Z,11.41
2022-10-22T22:44:20.433Z,11.41
2022-10-22T22:46:47.107Z,11.38
2022-10-22T22:49:14.160Z,11.36
2022-10-22T22:51:41.731Z,11.44
2022-10-22T22:54:10.061Z,11.32
2022-10-22T22:56:37.654Z,11.34
2022-10-22T22:59:05.606Z,11.36
2022-10-22T23:01:34.698Z,11.28
2022-10-22T23:04:11.039Z,11.28
2022-10-22T23:06:38.042Z,11.24
2022-10-22T23:09:07.441Z,11.29
2022-10-22T23:11:34.561Z,11.36
2022-10-22T23:14:04.195Z,11.28
2022-10-22T23:16:34.591Z,11.35
2022-10-22T23:19:02.543Z,11.32
2022-10-22T23:21:34.595Z,11.31
2022-10-22T23:24:04.592Z,11.30
2022-10-22T23:26:36.059Z,11.30
2022-10-22T23:29:08.938Z,11.30
2022-10-22T23:31:35.801Z,11.31
2022-10-22T23:34:02.596Z,11.30
2022-10-22T23:36:29.621Z,11.33
2022-10-22T23:38:59.368Z,11.27
2022-10-22T23:41:26.182Z,11.25
2022-10-22T23:43:52.865Z,11.20
2022-10-22T23:46:19.714Z,11.22
2022-10-22T23:48:46.554Z,11.23
2022-10-22T23:51:15.509Z,11.18
2022-10-22T23:53:43.330Z,11.07
2022-10-22T23:56:13.292Z,11.01
2022-10-22T23:58:40.221Z,11.00
